sensor_id;sensor_type;location;lat;lon;timestamp;temperature;humidity
66312;HTU21D;53114;51.138;6.008;2023-04-01T00:01:00;10.66;118.99
66312;HTU21D;53114;51.138;6.008;2023-04-01T00:03:27;10.67;118.99
66312;HTU21D;53114;51.138;6.008;2023-04-01T00:05:55;10.71;118.99
66312;HTU21D;53114;51.138;6.008;2023-04-01T00:08:22;10.74;118.99
66312;HTU21D;53114;51.138;6.008;2023-04-01T00:10:49;10.73;118.99
66312;HTU21D;53114;51.138;6.008;2023-04-01T00:13:16;10.75;118.99
66312;HTU21D;53114;51.138;6.008;2023-04-01T00:15:42;10.79;118.99
66312;HTU21D;53114;51.138;6.008;2023-04-01T00:18:09;10.81;118.99
66312;HTU21D;53114;51.138;6.008;2023-04-01T00:20:36;10.80;118.99
66312;HTU21D;53114;51.138;6.008;2023-04-01T00:23:02;10.80;118.99
66312;HTU21D;53114;51.138;6.008;2023-04-01T00:25:28;10.82;118.99
66312;HTU21D;53114;51.138;6.008;2023-04-01T00:27:54;10.83;118.99
66312;HTU21D;53114;51.138;6.008;2023-04-01T00:30:21;10.78;118.99
66312;HTU21D;53114;51.138;6.008;2023-04-01T00:32:51;10.78;118.99
66312;HTU21D;53114;51.138;6.008;2023-04-01T00:35:18;10.73;118.99
66312;HTU21D;53114;51.138;6.008;2023-04-01T00:37:44;10.72;118.99
66312;HTU21D;53114;51.138;6.008;2023-04-01T00:40:36;10.71;118.99
66312;HTU21D;53114;51.138;6.008;2023-04-01T00:43:03;10.70;118.99
66312;HTU21D;53114;51.138;6.008;2023-04-01T00:45:34;10.70;118.99
66312;HTU21D;53114;51.138;6.008;2023-04-01T00:48:15;10.68;118.99
66312;HTU21D;53114;51.138;6.008;2023-04-01T00:50:49;10.63;118.99
66312;HTU21D;53114;51.138;6.008;2023-04-01T00:53:19;10.65;118.99
66312;HTU21D;53114;51.138;6.008;2023-04-01T00:55:56;10.66;118.99
66312;HTU21D;53114;51.138;6.008;2023-04-01T00:58:27;10.68;118.99
66312;HTU21D;53114;51.138;6.008;2023-04-01T01:00:57;10.64;118.99
66312;HTU21D;53114;51.138;6.008;2023-04-01T01:03:24;10.64;118.99
66312;HTU21D;53114;51.138;6.008;2023-04-01T01:11:40;10.50;118.99
66312;HTU21D;53114;51.138;6.008;2023-04-01T01:16:44;10.39;118.99
66312;HTU21D;53114;51.138;6.008;2023-04-01T01:22:17;10.31;118.99
66312;HTU21D;53114;51.138;6.008;2023-04-01T01:27:26;10.26;118.99
66312;HTU21D;53114;51.138;6.008;2023-04-01T01:32:55;10.30;118.99
66312;HTU21D;53114;51.138;6.008;2023-04-01T01:35:49;10.31;118.99
66312;HTU21D;53114;51.138;6.008;2023-04-01T01:38:23;10.31;118.99
66312;HTU21D;53114;51.138;6.008;2023-04-01T01:41:00;10.30;118.99
66312;HTU21D;53114;51.138;6.008;2023-04-01T01:43:36;10.30;118.99
66312;HTU21D;53114;51.138;6.008;2023-04-01T01:46:16;10.37;118.99
66312;HTU21D;53114;51.138;6.008;2023-04-01T01:48:46;10.36;118.99
66312;HTU21D;53114;51.138;6.008;2023-04-01T01:51:14;10.34;118.99
66312;HTU21D;53114;51.138;6.008;2023-04-01T01:53:45;10.37;118.99
66312;HTU21D;53114;51.138;6.008;2023-04-01T01:56:12;10.39;118.99
66312;HTU21D;53114;51.138;6.008;2023-04-01T01:58:45;10.36;118.99
66312;HTU21D;53114;51.138;6.008;2023-04-01T02:01:20;10.37;118.99
66312;HTU21D;53114;51.138;6.008;2023-04-01T02:03:48;10.41;118.99
66312;HTU21D;53114;51.138;6.008;2023-04-01T02:06:21;10.40;118.99
66312;HTU21D;53114;51.138;6.008;2023-04-01T02:09:13;10.42;118.99
66312;HTU21D;53114;51.138;6.008;2023-04-01T02:11:51;10.39;118.99
66312;HTU21D;53114;51.138;6.008;2023-04-01T02:14:28;10.37;118.99
66312;HTU21D;53114;51.138;6.008;2023-04-01T02:17:01;10.36;118.99
66312;HTU21D;53114;51.138;6.008;2023-04-01T02:19:38;10.39;118.99
66312;HTU21D;53114;51.138;6.008;2023-04-01T02:22:10;10.40;118.99
66312;HTU21D;53114;51.138;6.008;2023-04-01T02:24:40;10.38;118.99
66312;HTU21D;53114;51.138;6.008;2023-04-01T02:27:10;10.29;118.99
66312;HTU21D;53114;51.138;6.008;2023-04-01T02:29:36;10.31;118.99
66312;HTU21D;53114;51.138;6.008;2023-04-01T02:32:07;10.33;118.99
66312;HTU21D;53114;51.138;6.008;2023-04-01T02:34:35;10.35;118.99
66312;HTU21D;53114;51.138;6.008;2023-04-01T02:37:01;10.16;118.99
66312;HTU21D;53114;51.138;6.008;2023-04-01T02:39:29;10.28;118.99
66312;HTU21D;53114;51.138;6.008;2023-04-01T02:41:55;10.33;118.99
66312;HTU21D;53114;51.138;6.008;2023-04-01T02:44:22;10.35;118.99
66312;HTU21D;53114;51.138;6.008;2023-04-01T02:46:48;10.29;118.99
66312;HTU21D;53114;51.138;6.008;2023-04-01T02:49:14;10.31;118.99
66312;HTU21D;53114;51.138;6.008;2023-04-01T02:51:40;10.35;118.99
66312;HTU21D;53114;51.138;6.008;2023-04-01T02:54:07;10.33;118.99
66312;HTU21D;53114;51.138;6.008;2023-04-01T02:56:33;10.31;118.99
66312;HTU21D;53114;51.138;6.008;2023-04-01T02:58:59;10.34;118.99
66312;HTU21D;53114;51.138;6.008;2023-04-01T03:01:25;10.38;118.99
66312;HTU21D;53114;51.138;6.008;2023-04-01T03:03:51;10.36;118.99
66312;HTU21D;53114;51.138;6.008;2023-04-01T03:06:17;10.35;118.99
66312;HTU21D;53114;51.138;6.008;2023-04-01T03:08:44;10.37;118.99
66312;HTU21D;53114;51.138;6.008;2023-04-01T03:11:10;10.35;118.99
66312;HTU21D;53114;51.138;6.008;2023-04-01T03:13:37;10.42;118.99
66312;HTU21D;53114;51.138;6.008;2023-04-01T03:16:04;10.44;118.99
66312;HTU21D;53114;51.138;6.008;2023-04-01T03:18:30;10.44;118.99
66312;HTU21D;53114;51.138;6.008;2023-04-01T03:20:57;10.46;118.99
66312;HTU21D;53114;51.138;6.008;2023-04-01T03:23:23;10.45;118.99
66312;HTU21D;53114;51.138;6.008;2023-04-01T03:25:50;10.45;118.99
66312;HTU21D;53114;51.138;6.008;2023-04-01T03:28:16;10.45;118.99
66312;HTU21D;53114;51.138;6.008;2023-04-01T03:30:43;10.48;118.99
66312;HTU21D;53114;51.138;6.008;2023-04-01T03:33:09;10.50;118.99
66312;HTU21D;53114;51.138;6.008;2023-04-01T03:35:35;10.51;118.99
66312;HTU21D;53114;51.138;6.008;2023-04-01T03:38:02;10.54;118.99
66312;HTU21D;53114;51.138;6.008;2023-04-01T03:40:29;10.56;118.99
66312;HTU21D;53114;51.138;6.008;2023-04-01T03:42:55;10.55;118.99
66312;HTU21D;53114;51.138;6.008;2023-04-01T03:45:22;10.54;118.99
66312;HTU21D;53114;51.138;6.008;2023-04-01T03:47:49;10.53;118.99
66312;HTU21D;53114;51.138;6.008;2023-04-01T03:50:15;10.51;118.99
66312;HTU21D;53114;51.138;6.008;2023-04-01T03:52:41;10.51;118.99
66312;HTU21D;53114;51.138;6.008;2023-04-01T03:55:07;10.50;118.99
66312;HTU21D;53114;51.138;6.008;2023-04-01T03:57:34;10.49;118.99
66312;HTU21D;53114;51.138;6.008;2023-04-01T04:00:12;10.48;118.99
66312;HTU21D;53114;51.138;6.008;2023-04-01T04:02:44;10.53;118.99
66312;HTU21D;53114;51.138;6.008;2023-04-01T04:05:14;10.52;118.99
66312;HTU21D;53114;51.138;6.008;2023-04-01T04:07:40;10.54;118.99
66312;HTU21D;53114;51.138;6.008;2023-04-01T04:10:08;10.57;118.99
66312;HTU21D;53114;51.138;6.008;2023-04-01T04:12:35;10.57;118.99
66312;HTU21D;53114;51.138;6.008;2023-04-01T04:15:01;10.54;118.99
66312;HTU21D;53114;51.138;6.008;2023-04-01T04:17:27;10.51;118.99
66312;HTU21D;53114;51.138;6.008;2023-04-01T04:19:54;10.46;118.99
66312;HTU21D;53114;51.138;6.008;2023-04-01T04:22:21;10.44;118.99
66312;HTU21D;53114;51.138;6.008;2023-04-01T04:24:47;10.46;118.99
66312;HTU21D;53114;51.138;6.008;2023-04-01T04:27:13;10.48;118.99
66312;HTU21D;53114;51.138;6.008;2023-04-01T04:29:52;10.46;118.99
66312;HTU21D;53114;51.138;6.008;2023-04-01T04:32:18;10.44;118.99
66312;HTU21D;53114;51.138;6.008;2023-04-01T04:34:45;10.42;118.99
66312;HTU21D;53114;51.138;6.008;2023-04-01T04:37:11;10.44;118.99
66312;HTU21D;53114;51.138;6.008;2023-04-01T04:39:38;10.45;118.99
66312;HTU21D;53114;51.138;6.008;2023-04-01T04:42:05;10.49;118.99
66312;HTU21D;53114;51.138;6.008;2023-04-01T04:44:32;10.49;118.99
66312;HTU21D;53114;51.138;6.008;2023-04-01T04:47:01;10.46;118.99
66312;HTU21D;53114;51.138;6.008;2023-04-01T04:49:27;10.43;118.99
66312;HTU21D;53114;51.138;6.008;2023-04-01T04:51:53;10.46;118.99
66312;HTU21D;53114;51.138;6.008;2023-04-01T04:54:23;10.46;118.99
66312;HTU21D;53114;51.138;6.008;2023-04-01T04:56:54;10.46;118.99
66312;HTU21D;53114;51.138;6.008;2023-04-01T04:59:22;10.45;118.99
66312;HTU21D;53114;51.138;6.008;2023-04-01T05:01:56;10.45;118.99
66312;HTU21D;53114;51.138;6.008;2023-04-01T05:04:23;10.50;118.99
66312;HTU21D;53114;51.138;6.008;2023-04-01T05:06:49;10.51;118.99
66312;HTU21D;53114;51.138;6.008;2023-04-01T05:09:16;10.51;118.99
66312;HTU21D;53114;51.138;6.008;2023-04-01T05:11:43;10.50;118.99
66312;HTU21D;53114;51.138;6.008;2023-04-01T05:14:14;10.46;118.99
66312;HTU21D;53114;51.138;6.008;2023-04-01T05:16:44;10.48;118.99
66312;HTU21D;53114;51.138;6.008;2023-04-01T05:19:10;10.50;118.99
66312;HTU21D;53114;51.138;6.008;2023-04-01T05:21:36;10.51;118.99
66312;HTU21D;53114;51.138;6.008;2023-04-01T05:24:03;10.53;118.99
66312;HTU21D;53114;51.138;6.008;2023-04-01T05:26:32;10.46;118.99
66312;HTU21D;53114;51.138;6.008;2023-04-01T05:28:59;10.50;118.99
66312;HTU21D;53114;51.138;6.008;2023-04-01T05:31:25;10.51;118.99
66312;HTU21D;53114;51.138;6.008;2023-04-01T05:33:51;10.53;118.99
66312;HTU21D;53114;51.138;6.008;2023-04-01T05:36:19;10.50;118.99
66312;HTU21D;53114;51.138;6.008;2023-04-01T05:38:48;10.50;118.99
66312;HTU21D;53114;51.138;6.008;2023-04-01T05:41:17;10.48;118.99
66312;HTU21D;53114;51.138;6.008;2023-04-01T05:43:45;10.46;118.99
66312;HTU21D;53114;51.138;6.008;2023-04-01T05:46:44;10.43;118.99
66312;HTU21D;53114;51.138;6.008;2023-04-01T05:49:20;10.42;118.99
66312;HTU21D;53114;51.138;6.008;2023-04-01T05:51:47;10.44;118.99
66312;HTU21D;53114;51.138;6.008;2023-04-01T05:54:13;10.43;118.99
66312;HTU21D;53114;51.138;6.008;2023-04-01T05:56:40;10.44;118.99
66312;HTU21D;53114;51.138;6.008;2023-04-01T05:59:06;10.44;118.99
66312;HTU21D;53114;51.138;6.008;2023-04-01T06:01:32;10.43;118.99
66312;HTU21D;53114;51.138;6.008;2023-04-01T06:03:59;10.46;118.99
66312;HTU21D;53114;51.138;6.008;2023-04-01T06:06:28;10.48;118.99
66312;HTU21D;53114;51.138;6.008;2023-04-01T06:09:27;10.48;118.99
66312;HTU21D;53114;51.138;6.008;2023-04-01T06:23:47;10.41;118.99
66312;HTU21D;53114;51.138;6.008;2023-04-01T06:26:37;10.42;118.99
66312;HTU21D;53114;51.138;6.008;2023-04-01T06:29:57;10.44;118.99
66312;HTU21D;53114;51.138;6.008;2023-04-01T06:32:15;10.43;118.99
66312;HTU21D;53114;51.138;6.008;2023-04-01T06:35:36;10.44;118.99
66312;HTU21D;53114;51.138;6.008;2023-04-01T06:38:20;10.49;118.99
66312;HTU21D;53114;51.138;6.008;2023-04-01T06:41:07;10.49;118.99
66312;HTU21D;53114;51.138;6.008;2023-04-01T06:44:07;10.48;118.99
66312;HTU21D;53114;51.138;6.008;2023-04-01T06:50:34;10.48;118.99
66312;HTU21D;53114;51.138;6.008;2023-04-01T06:56:17;10.51;118.99
66312;HTU21D;53114;51.138;6.008;2023-04-01T06:59:02;10.43;118.99
66312;HTU21D;53114;51.138;6.008;2023-04-01T07:01:39;10.45;118.99
66312;HTU21D;53114;51.138;6.008;2023-04-01T07:04:25;10.48;118.99
66312;HTU21D;53114;51.138;6.008;2023-04-01T07:09:55;10.58;118.99
66312;HTU21D;53114;51.138;6.008;2023-04-01T07:12:33;10.54;118.99
66312;HTU21D;53114;51.138;6.008;2023-04-01T07:15:20;10.51;118.99
66312;HTU21D;53114;51.138;6.008;2023-04-01T07:17:55;10.53;118.99
66312;HTU21D;53114;51.138;6.008;2023-04-01T07:20:29;10.54;118.99
66312;HTU21D;53114;51.138;6.008;2023-04-01T07:23:00;10.57;118.99
66312;HTU21D;53114;51.138;6.008;2023-04-01T07:25:39;10.57;118.99
66312;HTU21D;53114;51.138;6.008;2023-04-01T07:28:33;10.60;118.99
66312;HTU21D;53114;51.138;6.008;2023-04-01T07:34:31;10.67;118.99
66312;HTU21D;53114;51.138;6.008;2023-04-01T07:37:14;10.68;118.99
66312;HTU21D;53114;51.138;6.008;2023-04-01T07:48:46;10.59;118.99
66312;HTU21D;53114;51.138;6.008;2023-04-01T07:51:29;10.67;118.99
66312;HTU21D;53114;51.138;6.008;2023-04-01T07:54:11;10.70;118.99
66312;HTU21D;53114;51.138;6.008;2023-04-01T07:57:01;10.69;118.99
66312;HTU21D;53114;51.138;6.008;2023-04-01T08:00:22;10.68;118.99
66312;HTU21D;53114;51.138;6.008;2023-04-01T08:11:58;10.82;118.99
66312;HTU21D;53114;51.138;6.008;2023-04-01T08:18:29;10.88;118.99
66312;HTU21D;53114;51.138;6.008;2023-04-01T08:21:03;10.86;118.99
66312;HTU21D;53114;51.138;6.008;2023-04-01T08:23:43;10.87;118.99
66312;HTU21D;53114;51.138;6.008;2023-04-01T08:26:30;10.93;118.99
66312;HTU21D;53114;51.138;6.008;2023-04-01T08:29:22;10.86;118.99
66312;HTU21D;53114;51.138;6.008;2023-04-01T08:32:23;10.92;118.99
66312;HTU21D;53114;51.138;6.008;2023-04-01T08:37:40;10.90;118.99
66312;HTU21D;53114;51.138;6.008;2023-04-01T08:43:12;10.88;118.99
66312;HTU21D;53114;51.138;6.008;2023-04-01T08:46:19;10.94;118.99
66312;HTU21D;53114;51.138;6.008;2023-04-01T08:54:44;10.94;118.99
66312;HTU21D;53114;51.138;6.008;2023-04-01T08:57:40;10.96;118.99
66312;HTU21D;53114;51.138;6.008;2023-04-01T09:01:03;10.94;118.99
66312;HTU21D;53114;51.138;6.008;2023-04-01T09:03:44;11.02;118.99
66312;HTU21D;53114;51.138;6.008;2023-04-01T09:06:35;11.09;118.99
66312;HTU21D;53114;51.138;6.008;2023-04-01T09:25:58;11.10;118.99
66312;HTU21D;53114;51.138;6.008;2023-04-01T09:28:37;11.11;118.99
66312;HTU21D;53114;51.138;6.008;2023-04-01T09:46:15;11.20;118.99
66312;HTU21D;53114;51.138;6.008;2023-04-01T09:49:18;11.12;118.99
66312;HTU21D;53114;51.138;6.008;2023-04-01T09:57:53;11.04;118.99
66312;HTU21D;53114;51.138;6.008;2023-04-01T10:20:41;11.23;118.99
66312;HTU21D;53114;51.138;6.008;2023-04-01T10:23:48;11.32;118.99
66312;HTU21D;53114;51.138;6.008;2023-04-01T10:29:22;11.38;118.99
66312;HTU21D;53114;51.138;6.008;2023-04-01T10:44:41;11.48;118.99
66312;HTU21D;53114;51.138;6.008;2023-04-01T10:47:48;11.52;118.99
66312;HTU21D;53114;51.138;6.008;2023-04-01T10:53:31;11.75;118.99
66312;HTU21D;53114;51.138;6.008;2023-04-01T10:56:59;11.81;118.99
66312;HTU21D;53114;51.138;6.008;2023-04-01T11:17:57;12.56;118.99
66312;HTU21D;53114;51.138;6.008;2023-04-01T11:26:00;12.61;118.99
66312;HTU21D;53114;51.138;6.008;2023-04-01T11:37:20;13.04;118.99
66312;HTU21D;53114;51.138;6.008;2023-04-01T11:46:11;13.41;118.99
66312;HTU21D;53114;51.138;6.008;2023-04-01T11:51:54;13.36;118.99
66312;HTU21D;53114;51.138;6.008;2023-04-01T12:12:52;12.94;118.99
66312;HTU21D;53114;51.138;6.008;2023-04-01T12:33:21;12.96;118.99
66312;HTU21D;53114;51.138;6.008;2023-04-01T12:41:11;13.05;118.99
66312;HTU21D;53114;51.138;6.008;2023-04-01T12:55:43;12.76;118.99
66312;HTU21D;53114;51.138;6.008;2023-04-01T12:58:37;12.58;118.99
66312;HTU21D;53114;51.138;6.008;2023-04-01T13:01:27;12.46;118.99
66312;HTU21D;53114;51.138;6.008;2023-04-01T13:07:44;12.28;118.99
66312;HTU21D;53114;51.138;6.008;2023-04-01T13:10:01;12.26;118.99
66312;HTU21D;53114;51.138;6.008;2023-04-01T13:15:49;12.34;118.99
66312;HTU21D;53114;51.138;6.008;2023-04-01T13:24:29;12.52;118.99
66312;HTU21D;53114;51.138;6.008;2023-04-01T13:27:06;12.41;118.99
66312;HTU21D;53114;51.138;6.008;2023-04-01T13:35:46;12.21;118.99
66312;HTU21D;53114;51.138;6.008;2023-04-01T13:41:25;12.35;118.99
66312;HTU21D;53114;51.138;6.008;2023-04-01T13:49:26;12.45;118.99
66312;HTU21D;53114;51.138;6.008;2023-04-01T13:54:59;12.41;118.99
66312;HTU21D;53114;51.138;6.008;2023-04-01T13:58:04;12.38;118.99
66312;HTU21D;53114;51.138;6.008;2023-04-01T14:06:09;12.50;118.99
66312;HTU21D;53114;51.138;6.008;2023-04-01T14:17:45;12.45;118.99
66312;HTU21D;53114;51.138;6.008;2023-04-01T14:20:33;12.44;118.99
66312;HTU21D;53114;51.138;6.008;2023-04-01T14:31:57;12.28;118.99
66312;HTU21D;53114;51.138;6.008;2023-04-01T14:48:05;12.25;118.99
66312;HTU21D;53114;51.138;6.008;2023-04-01T14:50:46;12.22;118.99
66312;HTU21D;53114;51.138;6.008;2023-04-01T14:53:29;12.15;118.99
66312;HTU21D;53114;51.138;6.008;2023-04-01T14:55:59;12.05;118.99
66312;HTU21D;53114;51.138;6.008;2023-04-01T14:58:47;11.89;118.99
66312;HTU21D;53114;51.138;6.008;2023-04-01T15:06:53;11.83;118.99
66312;HTU21D;53114;51.138;6.008;2023-04-01T15:17:58;12.04;118.99
66312;HTU21D;53114;51.138;6.008;2023-04-01T15:40:20;11.74;118.99
66312;HTU21D;53114;51.138;6.008;2023-04-01T15:43:11;11.70;118.99
66312;HTU21D;53114;51.138;6.008;2023-04-01T15:45:56;11.68;118.99
66312;HTU21D;53114;51.138;6.008;2023-04-01T16:09:18;11.23;118.99
66312;HTU21D;53114;51.138;6.008;2023-04-01T16:23:57;11.03;118.99
66312;HTU21D;53114;51.138;6.008;2023-04-01T16:29:53;10.99;118.99
66312;HTU21D;53114;51.138;6.008;2023-04-01T16:32:34;10.98;118.99
66312;HTU21D;53114;51.138;6.008;2023-04-01T16:39:09;10.94;118.99
66312;HTU21D;53114;51.138;6.008;2023-04-01T16:43:56;10.83;118.99
66312;HTU21D;53114;51.138;6.008;2023-04-01T16:46:34;10.75;118.99
66312;HTU21D;53114;51.138;6.008;2023-04-01T16:51:48;10.64;118.99
66312;HTU21D;53114;51.138;6.008;2023-04-01T16:54:26;10.56;118.99
66312;HTU21D;53114;51.138;6.008;2023-04-01T16:57:09;10.59;118.99
66312;HTU21D;53114;51.138;6.008;2023-04-01T16:59:57;10.65;118.99
66312;HTU21D;53114;51.138;6.008;2023-04-01T17:02:35;10.64;118.99
66312;HTU21D;53114;51.138;6.008;2023-04-01T17:05:05;10.67;118.99
66312;HTU21D;53114;51.138;6.008;2023-04-01T17:25:13;10.39;118.99
66312;HTU21D;53114;51.138;6.008;2023-04-01T17:34:09;10.29;118.99
66312;HTU21D;53114;51.138;6.008;2023-04-01T17:47:59;10.30;118.99
66312;HTU21D;53114;51.138;6.008;2023-04-01T17:58:45;10.38;118.99
66312;HTU21D;53114;51.138;6.008;2023-04-01T18:10:29;10.40;118.99
66312;HTU21D;53114;51.138;6.008;2023-04-01T18:16:00;10.37;118.99
66312;HTU21D;53114;51.138;6.008;2023-04-01T18:30:31;10.25;118.99
66312;HTU21D;53114;51.138;6.008;2023-04-01T18:39:00;10.22;118.99
66312;HTU21D;53114;51.138;6.008;2023-04-01T18:44:51;10.21;118.99
66312;HTU21D;53114;51.138;6.008;2023-04-01T18:52:39;10.19;118.99
66312;HTU21D;53114;51.138;6.008;2023-04-01T18:55:37;10.20;118.99
66312;HTU21D;53114;51.138;6.008;2023-04-01T18:58:25;10.18;118.99
66312;HTU21D;53114;51.138;6.008;2023-04-01T19:01:25;10.20;118.99
66312;HTU21D;53114;51.138;6.008;2023-04-01T19:09:20;10.18;118.99
66312;HTU21D;53114;51.138;6.008;2023-04-01T19:19:41;10.19;118.99
66312;HTU21D;53114;51.138;6.008;2023-04-01T19:27:59;10.21;118.99
66312;HTU21D;53114;51.138;6.008;2023-04-01T19:38:38;10.27;118.99
66312;HTU21D;53114;51.138;6.008;2023-04-01T19:43:54;10.29;118.99
66312;HTU21D;53114;51.138;6.008;2023-04-01T19:46:45;10.35;118.99
66312;HTU21D;53114;51.138;6.008;2023-04-01T20:03:40;10.50;118.99
66312;HTU21D;53114;51.138;6.008;2023-04-01T20:06:38;10.57;118.99
66312;HTU21D;53114;51.138;6.008;2023-04-01T20:15:03;10.71;118.99
66312;HTU21D;53114;51.138;6.008;2023-04-01T20:27:47;10.66;118.99
66312;HTU21D;53114;51.138;6.008;2023-04-01T20:30:55;10.63;118.99
66312;HTU21D;53114;51.138;6.008;2023-04-01T20:36:36;10.58;118.99
66312;HTU21D;53114;51.138;6.008;2023-04-01T20:39:43;10.53;118.99
66312;HTU21D;53114;51.138;6.008;2023-04-01T20:51:29;10.54;118.99
66312;HTU21D;53114;51.138;6.008;2023-04-01T20:54:39;10.52;118.99
66312;HTU21D;53114;51.138;6.008;2023-04-01T21:11:51;10.33;118.99
66312;HTU21D;53114;51.138;6.008;2023-04-01T21:30:57;10.11;118.99
66312;HTU21D;53114;51.138;6.008;2023-04-01T21:36:29;10.09;118.99
66312;HTU21D;53114;51.138;6.008;2023-04-01T21:39:52;10.10;118.99
66312;HTU21D;53114;51.138;6.008;2023-04-01T21:42:26;10.09;118.99
66312;HTU21D;53114;51.138;6.008;2023-04-01T21:53:44;10.04;118.99
66312;HTU21D;53114;51.138;6.008;2023-04-01T21:56:46;9.96;118.99
66312;HTU21D;53114;51.138;6.008;2023-04-01T22:13:32;9.75;118.99
66312;HTU21D;53114;51.138;6.008;2023-04-01T22:18:54;9.55;118.99
66312;HTU21D;53114;51.138;6.008;2023-04-01T22:22:01;9.51;118.99
66312;HTU21D;53114;51.138;6.008;2023-04-01T22:30:16;9.46;118.99
66312;HTU21D;53114;51.138;6.008;2023-04-01T22:33:07;9.47;118.99
66312;HTU21D;53114;51.138;6.008;2023-04-01T22:35:40;9.53;118.99
66312;HTU21D;53114;51.138;6.008;2023-04-01T22:40:54;9.51;118.99
66312;HTU21D;53114;51.138;6.008;2023-04-01T22:43:36;9.51;118.99
66312;HTU21D;53114;51.138;6.008;2023-04-01T22:49:15;9.53;118.99
66312;HTU21D;53114;51.138;6.008;2023-04-01T22:54:46;9.37;118.99
66312;HTU21D;53114;51.138;6.008;2023-04-01T23:02:40;9.23;118.99
66312;HTU21D;53114;51.138;6.008;2023-04-01T23:05:13;9.16;118.99
66312;HTU21D;53114;51.138;6.008;2023-04-01T23:10:29;9.11;118.99
66312;HTU21D;53114;51.138;6.008;2023-04-01T23:13:09;9.08;118.99
66312;HTU21D;53114;51.138;6.008;2023-04-01T23:15:37;9.05;118.99
66312;HTU21D;53114;51.138;6.008;2023-04-01T23:18:22;9.01;118.99
66312;HTU21D;53114;51.138;6.008;2023-04-01T23:21:12;8.97;118.99
66312;HTU21D;53114;51.138;6.008;2023-04-01T23:27:02;8.90;118.99
66312;HTU21D;53114;51.138;6.008;2023-04-01T23:29:36;8.89;118.99
66312;HTU21D;53114;51.138;6.008;2023-04-01T23:32:23;8.92;118.99
66312;HTU21D;53114;51.138;6.008;2023-04-01T23:34:55;8.94;118.99
66312;HTU21D;53114;51.138;6.008;2023-04-01T23:37:23;8.96;118.99
66312;HTU21D;53114;51.138;6.008;2023-04-01T23:39:59;8.92;118.99
66312;HTU21D;53114;51.138;6.008;2023-04-01T23:44:58;8.82;118.99
66312;HTU21D;53114;51.138;6.008;2023-04-01T23:47:35;8.74;118.99
66312;HTU21D;53114;51.138;6.008;2023-04-01T23:50:16;8.71;118.99
66312;HTU21D;53114;51.138;6.008;2023-04-01T23:53:33;8.67;118.99
66312;HTU21D;53114;51.138;6.008;2023-04-01T23:55:34;8.61;118.99
